BAW7YT EGLL-LEBL
Flight info
| Callsign | BAW7YT |
|---|---|
| Flight time | N/A |
| Altitude | 35000 |
| Route | MODMI M185 MID L151 SITET UN859 SOPIL DCT BALAN DCT EVPOK DCT NARAK DCT GAI DCT LOMRA DCT ROCAN DCT PUMAL |
| Aircraft | A320/M-SDE3FGHIRWY/LB1 |
Departure
| Time | 2026-05-05 08:36 |
|---|---|
| Airport | London Heathrow Airport (EGLL) |
Arrival
| Time | N/A |
|---|---|
| Airport | Josep Tarradellas Barcelona-El Prat Airport (LEBL) |
| Time | Latitude | Longitude | Altitude | Speed | Heading |
|---|---|---|---|---|---|
| 2026-05-05 08:13 | 51.47404 | -0.48891 | 91 ft | 0 kts | 179° |
| 2026-05-05 08:26 | 51.47411 | -0.48891 | 91 ft | 2 kts | 179° |
| 2026-05-05 08:26 | 51.47428 | -0.48891 | 87 ft | 2 kts | 179° |
| 2026-05-05 08:26 | 51.47445 | -0.48892 | 88 ft | 2 kts | 179° |
| 2026-05-05 08:26 | 51.47463 | -0.48892 | 87 ft | 2 kts | 179° |
| 2026-05-05 08:27 | 51.47473 | -0.48893 | 86 ft | 1 kts | 188° |
| 2026-05-05 08:27 | 51.47485 | -0.48892 | 86 ft | 2 kts | 150° |
| 2026-05-05 08:27 | 51.47493 | -0.48901 | 86 ft | 0 kts | 117° |
| 2026-05-05 08:29 | 51.47491 | -0.48897 | 86 ft | 1 kts | 116° |
| 2026-05-05 08:30 | 51.47484 | -0.48781 | 89 ft | 9 kts | 89° |
| 2026-05-05 08:30 | 51.47486 | -0.48667 | 87 ft | 11 kts | 89° |
| 2026-05-05 08:30 | 51.47488 | -0.48538 | 87 ft | 10 kts | 89° |
| 2026-05-05 08:30 | 51.47438 | -0.48475 | 86 ft | 11 kts | 179° |
| 2026-05-05 08:31 | 51.47354 | -0.48474 | 86 ft | 13 kts | 181° |
| 2026-05-05 08:31 | 51.47315 | -0.48474 | 86 ft | 14 kts | 180° |
| 2026-05-05 08:31 | 51.47261 | -0.48475 | 86 ft | 15 kts | 181° |
| 2026-05-05 08:31 | 51.47151 | -0.48474 | 86 ft | 17 kts | 179° |
| 2026-05-05 08:32 | 51.47027 | -0.48471 | 88 ft | 19 kts | 179° |
| 2026-05-05 08:32 | 51.46911 | -0.48470 | 89 ft | 12 kts | 180° |
| 2026-05-05 08:32 | 51.46819 | -0.48470 | 86 ft | 13 kts | 180° |
| 2026-05-05 08:32 | 51.46724 | -0.48469 | 86 ft | 12 kts | 180° |
| 2026-05-05 08:33 | 51.46650 | -0.48468 | 86 ft | 7 kts | 179° |
| 2026-05-05 08:33 | 51.46621 | -0.48468 | 86 ft | 2 kts | 180° |
| 2026-05-05 08:33 | 51.46614 | -0.48468 | 86 ft | 0 kts | 180° |
| 2026-05-05 08:34 | 51.46603 | -0.48468 | 86 ft | 3 kts | 180° |
| 2026-05-05 08:34 | 51.46572 | -0.48467 | 86 ft | 6 kts | 179° |
| 2026-05-05 08:34 | 51.46523 | -0.48465 | 86 ft | 8 kts | 179° |
| 2026-05-05 08:34 | 51.46477 | -0.48410 | 87 ft | 10 kts | 96° |
| 2026-05-05 08:35 | 51.46476 | -0.48250 | 89 ft | 31 kts | 89° |
| 2026-05-05 08:35 | 51.46483 | -0.47526 | 85 ft | 97 kts | 89° |
| 2026-05-05 08:35 | 51.46486 | -0.46169 | 89 ft | 145 kts | 90° |
| 2026-05-05 08:35 | 51.46485 | -0.44361 | 251 ft | 170 kts | 89° |
| 2026-05-05 08:36 | 51.46476 | -0.43095 | 604 ft | 175 kts | 89° |
| 2026-05-05 08:36 | 51.46468 | -0.41092 | 1205 ft | 182 kts | 89° |
| 2026-05-05 08:36 | 51.46068 | -0.39071 | 1514 ft | 208 kts | 119° |
| 2026-05-05 08:36 | 51.45049 | -0.37214 | 1727 ft | 239 kts | 141° |
| 2026-05-05 08:37 | 51.43467 | -0.36068 | 2201 ft | 261 kts | 163° |
| 2026-05-05 08:37 | 51.41676 | -0.35392 | 3056 ft | 264 kts | 167° |
| 2026-05-05 08:37 | 51.39841 | -0.35428 | 3928 ft | 272 kts | 196° |
| 2026-05-05 08:37 | 51.38166 | -0.36880 | 4708 ft | 279 kts | 217° |
| 2026-05-05 08:38 | 51.36580 | -0.38681 | 5617 ft | 278 kts | 210° |
| 2026-05-05 08:38 | 51.34856 | -0.40150 | 6019 ft | 284 kts | 205° |
| 2026-05-05 08:38 | 51.33076 | -0.41435 | 6006 ft | 280 kts | 204° |
| 2026-05-05 08:38 | 51.31286 | -0.42668 | 6000 ft | 281 kts | 204° |
| 2026-05-05 08:39 | 51.29500 | -0.43920 | 6003 ft | 281 kts | 204° |
| 2026-05-05 08:39 | 51.27722 | -0.45212 | 6004 ft | 281 kts | 205° |
| 2026-05-05 08:39 | 51.25960 | -0.46545 | 6003 ft | 279 kts | 206° |
| 2026-05-05 08:39 | 51.24216 | -0.47907 | 6003 ft | 280 kts | 207° |
| 2026-05-05 08:40 | 51.22412 | -0.49074 | 6150 ft | 285 kts | 191° |
| 2026-05-05 08:40 | 51.20437 | -0.49103 | 6977 ft | 286 kts | 168° |
| 2026-05-05 08:40 | 51.18511 | -0.48282 | 7828 ft | 287 kts | 163° |
| 2026-05-05 08:40 | 51.16584 | -0.47411 | 8676 ft | 289 kts | 163° |
| 2026-05-05 08:41 | 51.14640 | -0.46527 | 9481 ft | 292 kts | 163° |
| 2026-05-05 08:41 | 51.12678 | -0.45633 | 10228 ft | 295 kts | 163° |
| 2026-05-05 08:41 | 51.10635 | -0.44699 | 10504 ft | 317 kts | 163° |
| 2026-05-05 08:41 | 51.08441 | -0.43702 | 10747 ft | 336 kts | 163° |
| 2026-05-05 08:42 | 51.06174 | -0.42679 | 11333 ft | 342 kts | 163° |
| 2026-05-05 08:42 | 51.03873 | -0.41640 | 11952 ft | 346 kts | 163° |
| 2026-05-05 08:42 | 51.01547 | -0.40587 | 12632 ft | 349 kts | 163° |
| 2026-05-05 08:42 | 50.99196 | -0.39520 | 13265 ft | 353 kts | 163° |
| 2026-05-05 08:43 | 50.96825 | -0.38445 | 13933 ft | 356 kts | 163° |
| 2026-05-05 08:43 | 50.94432 | -0.37360 | 14542 ft | 358 kts | 163° |
| 2026-05-05 08:43 | 50.92030 | -0.36273 | 15168 ft | 360 kts | 163° |
| 2026-05-05 08:43 | 50.89619 | -0.35187 | 15784 ft | 361 kts | 163° |
| 2026-05-05 08:44 | 50.87229 | -0.34118 | 16388 ft | 363 kts | 163° |
| 2026-05-05 08:44 | 50.84820 | -0.33041 | 17006 ft | 365 kts | 163° |
| 2026-05-05 08:44 | 50.82373 | -0.31947 | 17625 ft | 367 kts | 163° |
| 2026-05-05 08:44 | 50.79907 | -0.30847 | 18205 ft | 370 kts | 163° |
| 2026-05-05 08:45 | 50.77420 | -0.29737 | 18731 ft | 373 kts | 163° |
| 2026-05-05 08:45 | 50.74922 | -0.28621 | 19319 ft | 374 kts | 163° |
| 2026-05-05 08:45 | 50.72419 | -0.27501 | 19929 ft | 375 kts | 164° |
| 2026-05-05 08:45 | 50.69899 | -0.26373 | 20446 ft | 378 kts | 163° |
| 2026-05-05 08:46 | 50.67374 | -0.25249 | 21077 ft | 377 kts | 164° |
| 2026-05-05 08:46 | 50.64838 | -0.24124 | 21609 ft | 380 kts | 164° |
| 2026-05-05 08:46 | 50.62282 | -0.22988 | 22070 ft | 384 kts | 163° |
| 2026-05-05 08:46 | 50.59694 | -0.21834 | 22527 ft | 387 kts | 163° |
| 2026-05-05 08:47 | 50.57097 | -0.20677 | 23042 ft | 390 kts | 163° |
| 2026-05-05 08:47 | 50.54476 | -0.19509 | 23513 ft | 393 kts | 164° |
| 2026-05-05 08:47 | 50.51799 | -0.18320 | 23905 ft | 396 kts | 164° |
| 2026-05-05 08:47 | 50.49144 | -0.17148 | 24382 ft | 396 kts | 164° |
| 2026-05-05 08:48 | 50.46486 | -0.15978 | 24794 ft | 398 kts | 164° |
| 2026-05-05 08:48 | 50.43856 | -0.14822 | 25216 ft | 398 kts | 165° |
| 2026-05-05 08:48 | 50.41150 | -0.13632 | 25657 ft | 399 kts | 164° |
| 2026-05-05 08:48 | 50.38476 | -0.12453 | 26071 ft | 400 kts | 164° |
| 2026-05-05 08:49 | 50.35823 | -0.11289 | 26429 ft | 402 kts | 164° |
| 2026-05-05 08:49 | 50.33127 | -0.10111 | 26828 ft | 403 kts | 164° |
| 2026-05-05 08:49 | 50.30418 | -0.08929 | 27188 ft | 405 kts | 165° |
| 2026-05-05 08:49 | 50.27701 | -0.07742 | 27562 ft | 406 kts | 165° |
| 2026-05-05 08:50 | 50.24971 | -0.06546 | 27944 ft | 408 kts | 165° |
| 2026-05-05 08:50 | 50.22235 | -0.05363 | 28322 ft | 409 kts | 165° |
| 2026-05-05 08:50 | 50.19484 | -0.04190 | 28697 ft | 410 kts | 165° |
| 2026-05-05 08:50 | 50.16728 | -0.03025 | 29094 ft | 411 kts | 165° |
| 2026-05-05 08:51 | 50.13966 | -0.01868 | 29479 ft | 411 kts | 165° |
| 2026-05-05 08:51 | 50.11197 | -0.00711 | 29816 ft | 414 kts | 165° |
| 2026-05-05 08:51 | 50.08409 | 0.00462 | 30091 ft | 416 kts | 165° |
| 2026-05-05 08:51 | 50.05613 | 0.01642 | 30433 ft | 416 kts | 165° |
| 2026-05-05 08:52 | 50.02822 | 0.02822 | 30819 ft | 416 kts | 165° |
| 2026-05-05 08:52 | 50.00030 | 0.04001 | 31220 ft | 415 kts | 166° |
| 2026-05-05 08:52 | 49.97249 | 0.05173 | 31618 ft | 414 kts | 166° |
| 2026-05-05 08:52 | 49.94481 | 0.06336 | 32102 ft | 411 kts | 166° |
| 2026-05-05 08:53 | 49.91734 | 0.07489 | 32606 ft | 408 kts | 166° |
| 2026-05-05 08:53 | 49.89003 | 0.08632 | 33046 ft | 406 kts | 166° |
| 2026-05-05 08:53 | 49.86279 | 0.09768 | 33468 ft | 405 kts | 167° |
| 2026-05-05 08:53 | 49.83567 | 0.10896 | 33881 ft | 403 kts | 167° |
| 2026-05-05 08:54 | 49.80858 | 0.12022 | 34210 ft | 403 kts | 167° |
| 2026-05-05 08:54 | 49.78147 | 0.13148 | 34466 ft | 404 kts | 167° |
| 2026-05-05 08:54 | 49.75430 | 0.14278 | 34712 ft | 405 kts | 167° |
| 2026-05-05 08:54 | 49.72710 | 0.15409 | 34877 ft | 405 kts | 166° |
| 2026-05-05 08:55 | 49.69980 | 0.16543 | 34921 ft | 408 kts | 166° |
| 2026-05-05 08:55 | 49.64490 | 0.18811 | 34920 ft | 409 kts | 166° |
| 2026-05-05 08:56 | 49.58994 | 0.21084 | 34919 ft | 409 kts | 166° |